Time;durP1;ratioP1;P1;durP2;ratioP2;P2;SDS_P1;SDS_P2;PMS_P1;PMS_P2;Temp;Humidity;BMP_temperature;BMP_pressure;BME280_temperature;BME280_humidity;BME280_pressure;Samples;Min_cycle;Max_cycle;Signal;HPM_P1;HPM_P2
2023/07/27 00:01:40;;;;;;;2.50;1.50;;;12.60;88.30;;;;;;5054879;28;20443;-69
2023/07/27 00:04:09;;;;;;;3.40;1.97;;;12.50;88.80;;;;;;5055089;28;20435;-70
2023/07/27 00:06:36;;;;;;;3.70;1.63;;;12.50;89.30;;;;;;5055436;28;20440;-69
2023/07/27 00:09:04;;;;;;;6.80;1.97;;;12.50;89.10;;;;;;5055312;28;20446;-69
2023/07/27 00:11:31;;;;;;;3.17;2.07;;;12.30;89.80;;;;;;5054587;28;20442;-69
2023/07/27 00:13:59;;;;;;;4.43;2.17;;;12.20;90.30;;;;;;5055330;28;20500;-68
2023/07/27 00:16:26;;;;;;;3.87;1.80;;;12.20;90.20;;;;;;5055240;28;20516;-69
2023/07/27 00:18:53;;;;;;;2.50;1.70;;;12.20;90.10;;;;;;5054076;28;20484;-68
2023/07/27 00:21:22;;;;;;;3.17;2.03;;;12.20;90.20;;;;;;5055350;28;20439;-68
2023/07/27 00:23:50;;;;;;;2.90;2.00;;;12.20;90.00;;;;;;5054800;28;20522;-68
2023/07/27 00:26:17;;;;;;;4.60;2.23;;;12.10;90.20;;;;;;5055054;28;20280;-68
2023/07/27 00:28:44;;;;;;;2.90;1.80;;;12.00;90.20;;;;;;5054768;28;20445;-68
2023/07/27 00:31:12;;;;;;;3.97;1.88;;;12.00;90.30;;;;;;5055172;28;20196;-68
2023/07/27 00:33:39;;;;;;;3.22;1.80;;;12.00;90.20;;;;;;5054555;28;20193;-69
2023/07/27 00:36:06;;;;;;;4.93;2.60;;;11.90;90.50;;;;;;5054526;28;20192;-68
2023/07/27 00:38:35;;;;;;;4.40;2.70;;;11.90;90.50;;;;;;5054674;28;20477;-68
2023/07/27 00:41:02;;;;;;;7.00;2.83;;;11.90;90.60;;;;;;5054715;28;20446;-68
2023/07/27 00:43:34;;;;;;;5.80;2.60;;;12.00;90.60;;;;;;5054434;28;20439;-69
2023/07/27 00:46:04;;;;;;;6.40;3.13;;;12.10;90.40;;;;;;5054055;28;20184;-68
2023/07/27 00:48:32;;;;;;;6.20;2.97;;;12.10;90.50;;;;;;5054574;28;20442;-68
2023/07/27 00:50:59;;;;;;;4.90;2.20;;;12.20;90.30;;;;;;5054288;28;20432;-69
2023/07/27 00:53:27;;;;;;;8.50;3.73;;;12.30;90.10;;;;;;5054471;28;20481;-69
2023/07/27 00:55:56;;;;;;;5.13;3.15;;;12.20;90.10;;;;;;5054123;28;20527;-69
2023/07/27 00:58:24;;;;;;;6.07;3.20;;;11.80;90.90;;;;;;5053759;28;20575;-68
2023/07/27 01:00:51;;;;;;;3.47;2.20;;;11.80;91.20;;;;;;5054377;28;20447;-69
2023/07/27 01:03:19;;;;;;;3.67;2.33;;;11.80;91.30;;;;;;5054473;28;20776;-69
2023/07/27 01:05:46;;;;;;;4.20;2.43;;;11.90;91.10;;;;;;5054537;28;20484;-68
2023/07/27 01:08:14;;;;;;;4.30;2.27;;;12.00;90.90;;;;;;5054377;28;20473;-71
2023/07/27 01:10:50;;;;;;;4.53;2.15;;;12.00;90.80;;;;;;5037645;28;20515;-68
2023/07/27 01:13:27;;;;;;;5.23;1.90;;;12.10;91.00;;;;;;5054224;28;20180;-69
2023/07/27 01:15:59;;;;;;;4.15;2.88;;;12.10;90.90;;;;;;5053797;28;20787;-69
2023/07/27 01:18:34;;;;;;;4.00;2.17;;;12.20;91.00;;;;;;5053650;28;20217;-68
2023/07/27 01:21:13;;;;;;;4.97;3.07;;;12.20;90.90;;;;;;5053770;28;20572;-69
2023/07/27 01:24:18;;;;;;;6.38;2.22;;;12.20;90.30;;;;;;5054016;28;20434;-69
2023/07/27 01:27:19;;;;;;;4.43;2.40;;;12.10;90.60;;;;;;5051598;28;20658;-69
2023/07/27 01:30:17;;;;;;;3.05;2.20;;;12.00;90.50;;;;;;5051338;28;20195;-68
2023/07/27 01:32:50;;;;;;;4.17;2.60;;;12.10;90.70;;;;;;5051096;28;20190;-68
2023/07/27 01:35:19;;;;;;;5.70;2.80;;;12.10;90.60;;;;;;5053771;28;20427;-69
2023/07/27 01:37:48;;;;;;;4.87;2.13;;;12.20;90.70;;;;;;5053363;28;20482;-68
2023/07/27 01:40:16;;;;;;;3.25;1.75;;;12.20;90.20;;;;;;5053794;28;20460;-69
2023/07/27 01:42:44;;;;;;;3.03;2.10;;;12.20;90.00;;;;;;5053351;28;20184;-69
2023/07/27 01:45:13;;;;;;;4.32;2.03;;;12.20;90.00;;;;;;5053420;28;20193;-68
2023/07/27 01:47:42;;;;;;;4.40;2.37;;;12.20;90.20;;;;;;5053747;28;20188;-68
2023/07/27 01:50:12;;;;;;;3.40;2.00;;;12.20;90.20;;;;;;5053550;28;20435;-69
2023/07/27 01:52:40;;;;;;;4.17;1.90;;;12.20;90.10;;;;;;5053647;28;20447;-68
2023/07/27 01:55:10;;;;;;;4.77;2.70;;;12.20;89.50;;;;;;5053562;28;20451;-69
2023/07/27 01:57:39;;;;;;;3.08;1.80;;;12.20;88.80;;;;;;5053160;28;20474;-68
2023/07/27 02:00:08;;;;;;;3.58;1.88;;;12.20;88.60;;;;;;5053106;28;20221;-68
2023/07/27 02:02:35;;;;;;;3.08;2.10;;;12.20;88.70;;;;;;5052642;28;20235;-70
2023/07/27 02:05:03;;;;;;;7.63;2.90;;;12.20;88.30;;;;;;5053058;28;20192;-68
2023/07/27 02:07:35;;;;;;;4.47;1.90;;;12.10;87.90;;;;;;5053037;28;20280;-69
2023/07/27 02:10:05;;;;;;;3.77;2.00;;;12.10;88.30;;;;;;5053038;28;20524;-68
2023/07/27 02:12:39;;;;;;;4.53;2.40;;;12.00;88.80;;;;;;5053355;28;20446;-68
2023/07/27 02:15:12;;;;;;;2.80;1.73;;;12.00;89.20;;;;;;5053399;28;20435;-69
2023/07/27 02:17:41;;;;;;;5.25;1.70;;;12.00;89.60;;;;;;5052766;28;20916;-69
2023/07/27 02:20:12;;;;;;;3.50;2.55;;;11.90;89.30;;;;;;5052816;28;20238;-68
2023/07/27 02:22:42;;;;;;;3.30;2.50;;;11.80;90.00;;;;;;5053269;28;20191;-69
2023/07/27 02:25:10;;;;;;;4.45;2.20;;;11.80;90.00;;;;;;5053307;28;20986;-68
2023/07/27 02:27:37;;;;;;;3.20;2.05;;;11.80;90.00;;;;;;5053439;28;20194;-69
2023/07/27 02:30:06;;;;;;;3.10;2.00;;;11.80;89.90;;;;;;5052383;28;20192;-69
2023/07/27 02:32:34;;;;;;;2.60;1.90;;;11.80;90.00;;;;;;5052003;28;20605;-69
2023/07/27 02:35:01;;;;;;;3.70;2.33;;;11.80;90.00;;;;;;5053217;28;20546;-68
2023/07/27 02:37:28;;;;;;;3.75;2.47;;;11.80;90.00;;;;;;5052917;28;20704;-69
2023/07/27 02:39:56;;;;;;;3.55;1.92;;;11.80;89.70;;;;;;5053116;28;20628;-74
2023/07/27 02:42:24;;;;;;;2.95;1.85;;;11.80;90.00;;;;;;5055478;28;20215;-68
2023/07/27 02:44:51;;;;;;;4.40;1.90;;;11.80;90.00;;;;;;5056952;28;20253;-69
2023/07/27 02:47:18;;;;;;;3.90;2.10;;;11.90;90.10;;;;;;5056873;28;20192;-68
2023/07/27 02:49:46;;;;;;;3.60;1.80;;;11.90;89.50;;;;;;5056709;28;20275;-68
2023/07/27 02:52:13;;;;;;;3.97;1.83;;;11.90;88.90;;;;;;5056261;28;20192;-69
2023/07/27 02:54:40;;;;;;;3.28;1.75;;;11.80;88.40;;;;;;5056512;28;20191;-69
2023/07/27 02:57:09;;;;;;;3.75;2.00;;;11.80;88.20;;;;;;5056638;28;20283;-68
2023/07/27 02:59:36;;;;;;;2.70;1.67;;;11.70;88.70;;;;;;5056342;28;20270;-70
2023/07/27 03:02:04;;;;;;;4.10;2.10;;;11.70;89.10;;;;;;5056031;28;20182;-68
2023/07/27 03:04:31;;;;;;;3.33;2.03;;;11.70;89.50;;;;;;5056632;28;20223;-68
2023/07/27 03:06:59;;;;;;;3.80;1.93;;;11.70;89.60;;;;;;5056532;28;20643;-69
2023/07/27 03:09:35;;;;;;;2.38;1.40;;;11.70;89.90;;;;;;5055981;28;20466;-69
2023/07/27 03:12:02;;;;;;;3.95;3.08;;;11.80;89.80;;;;;;5055564;28;20180;-69
2023/07/27 03:14:31;;;;;;;4.25;3.33;;;11.70;88.60;;;;;;5056562;28;20250;-69
2023/07/27 03:16:58;;;;;;;5.10;2.78;;;11.80;88.70;;;;;;5056005;28;20199;-68
2023/07/27 03:19:27;;;;;;;4.97;3.10;;;11.70;88.80;;;;;;5055905;28;20222;-68
2023/07/27 03:21:54;;;;;;;6.63;2.83;;;11.70;88.80;;;;;;5056114;28;20245;-68
2023/07/27 03:24:22;;;;;;;2.80;2.15;;;11.70;88.20;;;;;;5056283;28;20193;-69
2023/07/27 03:26:49;;;;;;;5.20;2.47;;;11.60;88.60;;;;;;5056288;28;20189;-69
2023/07/27 03:29:16;;;;;;;3.85;2.40;;;11.60;88.90;;;;;;5055924;28;20277;-69
2023/07/27 03:31:45;;;;;;;4.20;3.08;;;11.60;89.00;;;;;;5055288;28;20740;-69
2023/07/27 03:34:12;;;;;;;3.55;2.22;;;11.50;89.20;;;;;;5055735;28;20195;-68
2023/07/27 03:36:39;;;;;;;7.28;2.75;;;11.50;89.40;;;;;;5056030;28;20200;-69
2023/07/27 03:39:06;;;;;;;3.55;1.55;;;11.50;89.50;;;;;;5055857;28;20307;-70
2023/07/27 03:41:34;;;;;;;3.40;2.00;;;11.40;89.20;;;;;;5054868;28;20190;-68
2023/07/27 03:44:01;;;;;;;2.75;1.60;;;11.30;90.20;;;;;;5055884;28;20228;-69
2023/07/27 03:46:28;;;;;;;2.83;1.67;;;11.30;90.50;;;;;;5055799;28;20538;-68
2023/07/27 03:48:57;;;;;;;3.00;1.80;;;11.30;90.50;;;;;;5055774;28;20200;-68
2023/07/27 03:51:24;;;;;;;3.47;1.60;;;11.30;90.60;;;;;;5055105;28;20197;-68
2023/07/27 03:53:51;;;;;;;3.63;2.30;;;11.40;90.80;;;;;;5055447;28;20630;-68
2023/07/27 03:56:18;;;;;;;3.22;1.90;;;11.30;90.50;;;;;;5055835;28;20217;-69
2023/07/27 03:58:46;;;;;;;3.33;1.80;;;11.20;90.60;;;;;;5055583;28;20270;-69
2023/07/27 04:01:13;;;;;;;3.97;1.98;;;11.30;90.80;;;;;;5055089;28;20209;-69
2023/07/27 04:03:40;;;;;;;5.38;1.98;;;11.30;90.90;;;;;;5055439;28;20192;-69
2023/07/27 04:06:09;;;;;;;3.78;2.15;;;11.40;91.10;;;;;;5055497;28;20209;-68
2023/07/27 04:08:36;;;;;;;3.30;1.92;;;11.40;91.00;;;;;;5055143;28;20188;-69
2023/07/27 04:11:03;;;;;;;2.95;1.80;;;11.40;91.00;;;;;;5054799;28;20233;-68
2023/07/27 04:13:30;;;;;;;7.75;3.85;;;11.50;91.00;;;;;;5055108;28;20647;-69
2023/07/27 04:16:00;;;;;;;5.13;2.90;;;11.50;90.60;;;;;;5055195;28;20646;-68
2023/07/27 04:18:27;;;;;;;6.32;3.13;;;11.50;90.50;;;;;;5054664;28;20220;-69
2023/07/27 04:20:54;;;;;;;6.57;3.20;;;11.50;90.40;;;;;;5054058;28;20194;-69
2023/07/27 04:23:23;;;;;;;3.90;2.28;;;11.50;90.30;;;;;;5055405;28;20194;-69
2023/07/27 04:25:50;;;;;;;4.32;2.72;;;11.50;90.50;;;;;;5055138;28;20245;-69
2023/07/27 04:28:18;;;;;;;4.68;3.40;;;11.50;90.20;;;;;;5055104;28;20262;-68
2023/07/27 04:30:45;;;;;;;5.90;3.28;;;11.50;90.20;;;;;;5054542;28;20192;-69
2023/07/27 04:33:12;;;;;;;6.47;3.17;;;11.40;90.60;;;;;;5054530;28;20194;-69
2023/07/27 04:35:39;;;;;;;7.20;3.00;;;11.50;91.00;;;;;;5054906;28;20600;-69
2023/07/27 04:38:06;;;;;;;8.70;3.67;;;11.50;91.00;;;;;;5054712;28;20264;-69
2023/07/27 04:40:35;;;;;;;6.70;3.17;;;11.60;91.30;;;;;;5054082;28;20227;-69
2023/07/27 04:43:02;;;;;;;5.67;2.60;;;11.60;91.40;;;;;;5054803;28;20561;-69
2023/07/27 04:45:30;;;;;;;6.45;3.00;;;11.70;91.70;;;;;;5054457;28;20442;-68
2023/07/27 04:47:57;;;;;;;5.28;2.90;;;11.80;91.60;;;;;;5054550;28;20206;-69
2023/07/27 04:50:24;;;;;;;4.30;2.78;;;11.80;91.70;;;;;;5054075;28;20574;-68
2023/07/27 04:52:51;;;;;;;4.55;3.00;;;11.90;91.80;;;;;;5051261;28;20292;-69
2023/07/27 04:55:18;;;;;;;3.85;2.38;;;11.90;92.00;;;;;;5053579;28;20198;-68
2023/07/27 04:57:47;;;;;;;9.50;4.88;;;12.00;92.00;;;;;;5053690;28;20189;-71
2023/07/27 05:00:14;;;;;;;24.50;14.25;;;12.10;91.90;;;;;;5053276;28;20214;-68
2023/07/27 05:02:42;;;;;;;12.53;8.83;;;12.20;91.70;;;;;;5053287;28;20723;-69
2023/07/27 05:05:10;;;;;;;6.30;3.60;;;12.30;91.60;;;;;;5052120;28;20845;-69
2023/07/27 05:07:37;;;;;;;7.50;5.65;;;12.40;91.30;;;;;;5053132;28;20616;-69
2023/07/27 05:10:05;;;;;;;13.10;8.43;;;12.50;91.00;;;;;;5053643;28;20577;-69
2023/07/27 05:12:32;;;;;;;4.67;3.50;;;12.50;90.60;;;;;;5053063;28;20500;-70
2023/07/27 05:15:01;;;;;;;11.10;7.33;;;12.50;89.50;;;;;;5053787;28;20785;-68
2023/07/27 05:17:28;;;;;;;11.40;7.23;;;12.50;90.00;;;;;;5052963;28;20450;-68
2023/07/27 05:19:56;;;;;;;13.50;9.47;;;12.50;90.20;;;;;;5053283;28;20466;-68
2023/07/27 05:22:23;;;;;;;24.73;15.07;;;12.50;90.40;;;;;;5052984;28;20473;-69
2023/07/27 05:24:51;;;;;;;9.40;6.77;;;12.50;89.40;;;;;;5053034;28;20477;-69
2023/07/27 05:27:18;;;;;;;17.33;10.53;;;12.60;89.50;;;;;;5052670;28;20447;-70
2023/07/27 05:29:45;;;;;;;6.47;4.30;;;12.70;88.60;;;;;;5052930;28;20446;-69
2023/07/27 05:32:14;;;;;;;9.47;4.90;;;12.80;88.70;;;;;;5052774;28;20443;-69
2023/07/27 05:34:41;;;;;;;20.23;9.77;;;12.90;89.20;;;;;;5053066;28;20829;-69
2023/07/27 05:37:08;;;;;;;13.80;8.93;;;12.90;89.10;;;;;;5052748;28;20922;-68
2023/07/27 05:39:35;;;;;;;7.50;4.60;;;13.00;89.40;;;;;;5053017;28;20864;-69
2023/07/27 05:42:02;;;;;;;3.90;2.63;;;13.10;89.40;;;;;;5052810;28;20443;-68
2023/07/27 05:44:30;;;;;;;3.03;2.00;;;13.10;89.50;;;;;;5052496;28;20922;-69
2023/07/27 05:46:57;;;;;;;3.10;1.87;;;13.30;89.50;;;;;;5052997;28;20534;-69
2023/07/27 05:49:26;;;;;;;29.20;17.37;;;13.40;89.20;;;;;;5053065;28;20500;-68
2023/07/27 05:51:53;;;;;;;26.43;15.80;;;13.50;85.90;;;;;;5052391;28;20484;-69
2023/07/27 05:54:20;;;;;;;46.67;31.13;;;13.40;85.40;;;;;;5052866;28;20435;-69
2023/07/27 05:56:47;;;;;;;16.23;11.30;;;13.50;85.50;;;;;;5052604;28;20509;-68
2023/07/27 05:59:14;;;;;;;8.87;6.17;;;13.40;86.00;;;;;;5051454;28;20487;-68
2023/07/27 06:01:42;;;;;;;11.27;6.87;;;13.40;85.70;;;;;;5051724;28;20442;-69
2023/07/27 06:04:09;;;;;;;4.30;2.17;;;13.30;86.50;;;;;;5052771;28;20439;-69
2023/07/27 06:06:37;;;;;;;12.93;8.87;;;13.40;86.30;;;;;;5051178;28;20519;-69
2023/07/27 06:09:05;;;;;;;5.27;3.20;;;13.30;86.20;;;;;;5052491;28;20439;-68
2023/07/27 06:11:32;;;;;;;4.83;3.47;;;13.40;86.20;;;;;;5052443;28;20429;-71
2023/07/27 06:13:58;;;;;;;5.20;2.77;;;13.50;86.50;;;;;;5052239;28;20448;-69
2023/07/27 06:16:25;;;;;;;5.20;2.83;;;13.60;86.40;;;;;;5053001;28;20521;-69
2023/07/27 06:18:52;;;;;;;15.43;10.70;;;13.60;86.40;;;;;;5056464;28;20443;-74
2023/07/27 06:21:19;;;;;;;4.17;2.83;;;13.70;87.00;;;;;;5056571;28;20511;-70
2023/07/27 06:23:47;;;;;;;5.17;2.50;;;13.80;85.60;;;;;;5056791;28;20529;-68
2023/07/27 06:26:15;;;;;;;4.77;3.00;;;13.80;86.50;;;;;;5055823;28;20446;-69
2023/07/27 06:28:41;;;;;;;5.57;2.37;;;13.90;87.00;;;;;;5056658;28;20955;-69
2023/07/27 06:31:08;;;;;;;5.27;2.17;;;13.90;86.40;;;;;;5055684;28;20520;-69
2023/07/27 06:33:35;;;;;;;4.40;2.27;;;13.90;87.30;;;;;;5056041;28;20997;-68
2023/07/27 06:36:02;;;;;;;3.93;2.23;;;14.00;87.10;;;;;;5056109;28;20456;-68
2023/07/27 06:38:29;;;;;;;22.40;14.10;;;14.10;86.30;;;;;;5055507;28;20535;-69
2023/07/27 06:40:57;;;;;;;10.27;5.90;;;14.30;86.60;;;;;;5056297;28;20578;-71
2023/07/27 06:43:24;;;;;;;5.80;3.63;;;14.50;85.40;;;;;;5055364;28;20467;-69
2023/07/27 06:45:51;;;;;;;7.10;4.67;;;14.50;84.10;;;;;;5056448;28;21005;-68
2023/07/27 06:48:18;;;;;;;7.37;4.17;;;14.50;84.90;;;;;;5056633;28;20510;-68
2023/07/27 06:50:45;;;;;;;4.67;2.57;;;14.60;85.20;;;;;;5056024;28;20550;-69
2023/07/27 06:53:12;;;;;;;4.23;2.37;;;14.70;86.20;;;;;;5056658;28;20478;-69
2023/07/27 06:55:39;;;;;;;10.73;6.47;;;14.80;84.70;;;;;;5056277;28;20482;-68
2023/07/27 06:58:08;;;;;;;8.83;3.30;;;15.00;84.00;;;;;;5056646;28;20501;-69
2023/07/27 07:00:35;;;;;;;5.37;2.13;;;15.10;84.60;;;;;;5053032;28;20484;-68
2023/07/27 07:03:02;;;;;;;6.00;2.73;;;15.30;84.20;;;;;;5055537;28;20823;-69
2023/07/27 07:05:29;;;;;;;4.07;2.43;;;15.40;83.30;;;;;;5056376;28;20447;-69
2023/07/27 07:07:56;;;;;;;5.20;2.17;;;15.60;83.30;;;;;;5055792;28;20483;-69
2023/07/27 07:10:23;;;;;;;2.90;2.23;;;15.60;82.90;;;;;;5053968;28;20554;-69
2023/07/27 07:12:50;;;;;;;4.57;2.40;;;15.70;82.30;;;;;;5054690;28;20524;-69
2023/07/27 07:15:18;;;;;;;4.23;2.83;;;15.80;82.20;;;;;;5054499;28;20523;-69
2023/07/27 07:17:45;;;;;;;6.37;3.90;;;15.90;82.60;;;;;;5054350;28;20520;-68
2023/07/27 07:20:14;;;;;;;2.87;2.07;;;16.00;82.10;;;;;;5054831;28;20472;-68
2023/07/27 07:22:40;;;;;;;6.27;3.03;;;16.10;81.80;;;;;;5054744;28;20530;-69
2023/07/27 07:25:08;;;;;;;5.90;3.70;;;16.20;82.20;;;;;;5054929;28;20871;-69
2023/07/27 07:27:35;;;;;;;7.93;6.00;;;16.20;81.20;;;;;;5053360;28;20790;-69
2023/07/27 07:30:04;;;;;;;6.27;4.60;;;16.20;80.70;;;;;;5054332;28;20536;-69
2023/07/27 07:32:33;;;;;;;5.10;2.97;;;16.40;81.60;;;;;;5054304;28;20510;-69
2023/07/27 07:35:00;;;;;;;6.90;4.07;;;16.40;80.40;;;;;;5054519;28;20523;-69
2023/07/27 07:37:27;;;;;;;4.70;2.97;;;16.40;79.80;;;;;;5053291;28;20445;-69
2023/07/27 07:39:54;;;;;;;4.70;1.87;;;16.50;78.70;;;;;;5054560;28;20557;-68
2023/07/27 07:42:21;;;;;;;3.90;1.93;;;16.50;79.60;;;;;;5054077;28;20479;-72
2023/07/27 07:44:47;;;;;;;5.33;2.60;;;16.70;79.90;;;;;;5054011;28;20444;-68
2023/07/27 07:47:14;;;;;;;9.57;5.90;;;16.90;78.90;;;;;;5053145;28;20826;-68
2023/07/27 07:49:43;;;;;;;27.57;14.37;;;17.00;76.40;;;;;;5054231;28;20512;-70
2023/07/27 07:52:10;;;;;;;29.20;15.30;;;17.10;77.10;;;;;;5053832;28;20485;-69
2023/07/27 07:54:36;;;;;;;15.83;8.83;;;17.20;78.60;;;;;;5053608;28;20988;-68
2023/07/27 07:57:04;;;;;;;13.97;8.43;;;17.40;75.60;;;;;;5054188;28;20476;-69
2023/07/27 07:59:31;;;;;;;15.20;9.30;;;17.50;75.60;;;;;;5053768;28;20469;-69
2023/07/27 08:01:58;;;;;;;14.50;9.70;;;17.50;72.80;;;;;;5053434;28;20517;-69
2023/07/27 08:04:25;;;;;;;14.33;8.80;;;17.50;72.10;;;;;;5053991;28;20464;-68
2023/07/27 08:06:54;;;;;;;5.67;3.00;;;17.60;72.30;;;;;;5053837;28;20524;-69
2023/07/27 08:09:21;;;;;;;4.47;2.00;;;17.70;72.80;;;;;;5014320;28;1129732;-70
2023/07/27 08:11:48;;;;;;;5.50;3.17;;;17.90;73.20;;;;;;5054882;28;20563;-69
2023/07/27 08:14:15;;;;;;;5.93;2.87;;;18.10;74.30;;;;;;5054892;28;20551;-69
2023/07/27 08:16:42;;;;;;;4.10;2.20;;;18.30;74.30;;;;;;5054777;28;20531;-69
2023/07/27 08:19:09;;;;;;;5.33;2.80;;;18.50;71.10;;;;;;5054742;28;20446;-69
2023/07/27 08:21:36;;;;;;;7.63;3.50;;;18.60;71.00;;;;;;5054718;28;20564;-70
2023/07/27 08:24:06;;;;;;;5.07;2.67;;;18.70;73.00;;;;;;5054580;28;20477;-69
2023/07/27 08:26:33;;;;;;;6.00;3.07;;;18.90;71.70;;;;;;5054595;28;20433;-69
2023/07/27 08:29:00;;;;;;;6.40;2.40;;;19.10;72.30;;;;;;5054134;28;20855;-69
2023/07/27 08:31:27;;;;;;;4.50;2.17;;;19.40;74.30;;;;;;5054157;28;20447;-69
2023/07/27 08:33:55;;;;;;;6.27;2.40;;;19.70;74.90;;;;;;5054463;28;20861;-68
2023/07/27 08:36:26;;;;;;;3.67;2.10;;;20.00;70.60;;;;;;5054832;28;20442;-69
2023/07/27 08:38:53;;;;;;;3.77;1.90;;;20.20;69.70;;;;;;5053649;28;20515;-69
2023/07/27 08:41:21;;;;;;;3.10;2.00;;;20.30;67.70;;;;;;5054557;28;20478;-70
2023/07/27 08:43:50;;;;;;;2.97;1.37;;;20.40;67.90;;;;;;5054875;28;20501;-69
2023/07/27 08:46:18;;;;;;;3.40;2.10;;;20.50;64.60;;;;;;5054355;28;20790;-69
2023/07/27 08:48:48;;;;;;;3.80;1.93;;;20.60;65.60;;;;;;5050527;28;20918;-70
2023/07/27 08:51:15;;;;;;;7.97;2.37;;;20.60;63.20;;;;;;5054046;28;20523;-69
2023/07/27 08:53:41;;;;;;;3.30;2.00;;;20.60;64.50;;;;;;5054015;28;21013;-69
2023/07/27 08:56:08;;;;;;;2.97;1.50;;;20.60;67.00;;;;;;5049590;28;20453;-69
2023/07/27 08:58:37;;;;;;;3.03;1.73;;;20.70;64.90;;;;;;5053870;28;20519;-69
2023/07/27 09:01:04;;;;;;;3.47;2.00;;;20.70;63.80;;;;;;5053901;28;20468;-69
2023/07/27 09:03:31;;;;;;;4.10;2.20;;;20.70;63.50;;;;;;5053870;28;20443;-69
2023/07/27 09:05:59;;;;;;;3.77;2.00;;;20.80;65.00;;;;;;5052147;28;20456;-69
2023/07/27 09:08:28;;;;;;;3.30;2.03;;;20.80;66.00;;;;;;5053679;28;20816;-69
2023/07/27 09:11:04;;;;;;;4.33;1.57;;;20.80;65.70;;;;;;5053375;28;20473;-68
2023/07/27 09:13:31;;;;;;;3.50;2.00;;;20.80;66.40;;;;;;5053545;28;20518;-69
2023/07/27 09:16:02;;;;;;;3.47;1.63;;;20.70;66.40;;;;;;5053169;28;20439;-69
2023/07/27 09:18:34;;;;;;;5.03;1.90;;;20.70;65.80;;;;;;5053562;28;20439;-68
2023/07/27 09:21:07;;;;;;;3.83;1.60;;;20.60;64.60;;;;;;5052313;28;20990;-68
2023/07/27 09:23:35;;;;;;;3.17;1.80;;;20.50;64.30;;;;;;5053668;28;20435;-69
2023/07/27 09:26:01;;;;;;;3.30;2.07;;;20.50;63.40;;;;;;5052716;28;20533;-69
2023/07/27 09:28:29;;;;;;;3.77;2.00;;;20.40;60.50;;;;;;5053267;28;20481;-69
2023/07/27 09:31:00;;;;;;;4.80;1.90;;;20.50;61.80;;;;;;5053320;28;20522;-71
2023/07/27 09:33:27;;;;;;;4.33;2.30;;;20.60;62.30;;;;;;5053205;28;20506;-69
2023/07/27 09:35:55;;;;;;;4.20;2.37;;;20.70;61.90;;;;;;5053429;28;20545;-69
2023/07/27 09:38:25;;;;;;;3.50;2.13;;;20.80;61.10;;;;;;5053427;28;20526;-69
2023/07/27 09:40:53;;;;;;;5.27;2.50;;;20.90;60.60;;;;;;5053006;28;20476;-69
2023/07/27 09:43:23;;;;;;;3.33;2.00;;;21.00;59.10;;;;;;5051950;28;20535;-69
2023/07/27 09:45:56;;;;;;;4.30;1.70;;;21.00;56.50;;;;;;5053373;28;20428;-69
2023/07/27 09:48:25;;;;;;;3.23;1.40;;;21.10;55.80;;;;;;5052233;28;20432;-69
2023/07/27 09:50:54;;;;;;;3.47;2.03;;;21.20;56.80;;;;;;5053347;28;20448;-69
2023/07/27 09:53:22;;;;;;;4.57;2.13;;;21.30;56.60;;;;;;5052895;28;20443;-69
2023/07/27 09:55:51;;;;;;;2.70;1.73;;;21.20;55.50;;;;;;5053092;28;20527;-69
2023/07/27 09:58:18;;;;;;;3.33;1.67;;;21.30;56.00;;;;;;5053130;28;20438;-70
2023/07/27 10:00:45;;;;;;;3.87;2.00;;;21.40;57.30;;;;;;5053012;28;20566;-70
2023/07/27 10:03:12;;;;;;;3.63;1.87;;;21.40;57.90;;;;;;5053329;28;20529;-69
2023/07/27 10:05:41;;;;;;;4.33;2.47;;;21.40;56.30;;;;;;5052630;28;20475;-69
2023/07/27 10:08:08;;;;;;;3.50;1.93;;;21.40;55.40;;;;;;5053432;28;20464;-71
2023/07/27 10:10:39;;;;;;;3.43;2.00;;;21.50;55.90;;;;;;5052895;28;20677;-69
2023/07/27 10:13:11;;;;;;;13.93;2.50;;;21.60;56.00;;;;;;5052982;28;20930;-69
2023/07/27 10:15:43;;;;;;;3.63;1.80;;;21.60;56.20;;;;;;5052419;28;20454;-69
2023/07/27 10:18:14;;;;;;;3.90;2.23;;;21.50;54.50;;;;;;5053119;28;20516;-69
2023/07/27 10:20:43;;;;;;;3.07;1.77;;;21.50;53.90;;;;;;5052749;28;20478;-69
2023/07/27 10:23:12;;;;;;;5.10;1.87;;;21.50;53.20;;;;;;5052634;28;20479;-69
2023/07/27 10:26:01;;;;;;;3.60;1.67;;;21.50;54.00;;;;;;5052812;28;20474;-69
2023/07/27 10:28:38;;;;;;;3.67;1.90;;;21.50;54.30;;;;;;5052726;28;20435;-69
2023/07/27 10:31:23;;;;;;;4.17;1.60;;;21.50;55.70;;;;;;5052702;28;20429;-69
2023/07/27 10:33:56;;;;;;;2.70;1.70;;;21.50;55.60;;;;;;5053077;28;20459;-69
2023/07/27 10:36:44;;;;;;;4.03;2.30;;;21.50;53.80;;;;;;5052439;28;20468;-69
2023/07/27 10:39:16;;;;;;;4.50;1.80;;;21.50;54.80;;;;;;5052767;28;20443;-69
2023/07/27 10:42:07;;;;;;;4.23;2.60;;;21.60;56.20;;;;;;5052756;28;20512;-69
2023/07/27 10:44:42;;;;;;;5.00;2.30;;;21.70;57.30;;;;;;5052520;28;20516;-70
2023/07/27 10:47:10;;;;;;;2.90;1.87;;;21.80;54.50;;;;;;5052908;28;20501;-69
2023/07/27 10:49:41;;;;;;;5.00;2.60;;;21.80;54.70;;;;;;5052693;28;20793;-70
2023/07/27 10:52:15;;;;;;;3.63;2.30;;;21.90;54.70;;;;;;5052608;28;20456;-69
2023/07/27 10:54:43;;;;;;;4.07;2.20;;;21.90;54.10;;;;;;5052958;28;20508;-69
2023/07/27 10:57:11;;;;;;;5.60;2.37;;;21.90;55.40;;;;;;5052479;28;20433;-69
2023/07/27 10:59:40;;;;;;;2.80;1.63;;;21.90;56.00;;;;;;5052689;28;20983;-69
2023/07/27 11:02:13;;;;;;;2.97;1.63;;;22.00;54.40;;;;;;5053287;28;20566;-69
2023/07/27 11:04:40;;;;;;;5.73;1.83;;;22.00;52.80;;;;;;5056179;28;20460;-69
2023/07/27 11:07:10;;;;;;;3.63;1.60;;;21.90;51.80;;;;;;5055391;28;21000;-69
2023/07/27 11:09:37;;;;;;;2.97;2.10;;;22.00;52.70;;;;;;5054445;28;20560;-69
2023/07/27 11:12:09;;;;;;;3.43;1.73;;;22.00;53.00;;;;;;5055438;28;20600;-69
2023/07/27 11:14:53;;;;;;;2.67;1.63;;;22.00;52.70;;;;;;5051924;28;20514;-69
2023/07/27 11:17:21;;;;;;;3.97;2.00;;;22.00;51.50;;;;;;5053817;28;20491;-70
2023/07/27 11:19:52;;;;;;;4.17;2.20;;;22.00;51.60;;;;;;5048414;28;20442;-70
2023/07/27 11:22:22;;;;;;;3.90;2.30;;;22.00;52.20;;;;;;5055487;28;20511;-69
2023/07/27 11:24:54;;;;;;;3.30;2.00;;;22.00;50.50;;;;;;5056018;28;20451;-69
2023/07/27 11:27:24;;;;;;;2.70;1.60;;;21.90;49.60;;;;;;5054944;28;20515;-70
2023/07/27 11:29:51;;;;;;;5.17;2.10;;;21.90;50.90;;;;;;5053570;28;20443;-69
2023/07/27 11:32:25;;;;;;;3.37;1.60;;;21.90;50.70;;;;;;5049894;28;20488;-69
2023/07/27 11:34:55;;;;;;;3.87;2.00;;;21.90;51.50;;;;;;5047701;28;20482;-69
2023/07/27 11:37:25;;;;;;;3.43;1.77;;;21.90;51.60;;;;;;5055150;28;20532;-69
2023/07/27 11:39:52;;;;;;;3.57;1.73;;;21.90;50.40;;;;;;5054449;28;20450;-69
2023/07/27 11:42:27;;;;;;;3.23;1.63;;;21.90;50.80;;;;;;5054733;28;20570;-69
2023/07/27 11:44:54;;;;;;;3.87;2.13;;;21.90;49.50;;;;;;5042899;28;20460;-69
2023/07/27 11:47:22;;;;;;;5.20;1.90;;;21.90;51.10;;;;;;5054495;28;20931;-70
2023/07/27 11:49:50;;;;;;;3.60;2.10;;;21.90;50.10;;;;;;5055269;28;20941;-69
2023/07/27 11:52:19;;;;;;;3.20;1.80;;;21.90;50.00;;;;;;5055597;28;20797;-69
2023/07/27 11:54:52;;;;;;;2.93;1.97;;;21.80;49.70;;;;;;5040989;28;20530;-69
2023/07/27 11:57:19;;;;;;;4.13;2.27;;;21.70;50.00;;;;;;5054830;28;20441;-69
2023/07/27 12:00:00;;;;;;;3.33;1.90;;;21.70;50.00;;;;;;5054857;28;20440;-69
2023/07/27 12:02:30;;;;;;;4.47;2.27;;;21.60;50.40;;;;;;5055265;28;20471;-69
2023/07/27 12:05:01;;;;;;;3.10;2.03;;;21.60;52.20;;;;;;5055302;28;20555;-69
2023/07/27 12:07:32;;;;;;;5.80;1.83;;;21.70;51.60;;;;;;5055486;28;20439;-68
2023/07/27 12:10:01;;;;;;;3.70;1.90;;;21.70;51.70;;;;;;5054976;28;20862;-69
2023/07/27 12:12:28;;;;;;;5.80;2.33;;;21.70;51.40;;;;;;5055288;28;20864;-73
2023/07/27 12:14:58;;;;;;;3.40;1.83;;;21.60;51.60;;;;;;5053884;28;20532;-69
2023/07/27 12:17:25;;;;;;;4.23;2.20;;;21.60;52.00;;;;;;5054623;28;20941;-69
2023/07/27 12:19:52;;;;;;;5.60;2.07;;;21.50;51.70;;;;;;5054830;28;20526;-69
2023/07/27 12:22:23;;;;;;;3.00;1.80;;;21.50;51.30;;;;;;5055029;28;20570;-71
2023/07/27 12:24:56;;;;;;;4.40;2.33;;;21.50;50.80;;;;;;5054766;28;20463;-69
2023/07/27 12:27:24;;;;;;;3.77;1.80;;;21.50;51.30;;;;;;5055102;28;20447;-69
2023/07/27 12:29:51;;;;;;;2.70;1.30;;;21.40;52.00;;;;;;5055025;28;20470;-69
2023/07/27 12:32:18;;;;;;;3.03;1.80;;;21.50;50.50;;;;;;5054835;28;20485;-69
2023/07/27 12:34:49;;;;;;;3.83;1.80;;;21.30;50.80;;;;;;5054875;28;20531;-69
2023/07/27 12:37:17;;;;;;;3.03;1.70;;;21.30;51.50;;;;;;5054570;28;20484;-69
2023/07/27 12:39:44;;;;;;;3.70;1.83;;;21.20;51.30;;;;;;5054425;28;20447;-69
2023/07/27 12:42:11;;;;;;;3.60;1.87;;;21.20;51.60;;;;;;5054354;28;20563;-68
2023/07/27 12:44:39;;;;;;;5.90;2.90;;;21.20;52.50;;;;;;5054402;28;20991;-69
2023/07/27 12:47:07;;;;;;;4.10;2.13;;;21.20;52.30;;;;;;5054239;28;20912;-69
2023/07/27 12:49:38;;;;;;;3.30;1.93;;;21.00;52.40;;;;;;5054516;28;20439;-69
2023/07/27 12:52:06;;;;;;;3.93;2.00;;;21.00;52.50;;;;;;5054238;28;20983;-69
2023/07/27 12:54:38;;;;;;;3.50;1.60;;;21.00;52.30;;;;;;5054520;28;20475;-69